createdAt,value
2022-09-21T00:00:39.841Z,2.42
2022-09-21T00:05:41.715Z,2.63
2022-09-21T00:10:43.233Z,2.25
2022-09-21T00:15:44.740Z,3.15
2022-09-21T00:20:46.615Z,2.60
2022-09-21T00:25:48.349Z,2.95
2022-09-21T00:30:52.016Z,2.78
2022-09-21T00:35:53.720Z,2.40
2022-09-21T00:40:55.223Z,2.47
2022-09-21T00:46:00.886Z,2.33
2022-09-21T00:51:06.380Z,2.50
2022-09-21T00:56:08.460Z,2.03
2022-09-21T01:01:10.704Z,2.38
2022-09-21T01:06:16.989Z,2.45
2022-09-21T01:11:25.567Z,2.70
2022-09-21T01:16:47.301Z,2.47
2022-09-21T01:21:54.091Z,2.40
2022-09-21T01:27:21.690Z,2.42
2022-09-21T01:32:25.954Z,2.90
2022-09-21T01:37:47.947Z,2.45
2022-09-21T01:42:51.467Z,2.50
2022-09-21T01:47:54.197Z,2.28
2022-09-21T01:52:55.647Z,2.20
2022-09-21T01:58:18.137Z,2.75
2022-09-21T02:03:38.461Z,2.50
2022-09-21T02:08:39.804Z,2.95
2022-09-21T02:13:44.033Z,2.95
2022-09-21T02:18:45.374Z,3.00
2022-09-21T02:23:56.476Z,2.75
2022-09-21T02:29:07.243Z,2.60
2022-09-21T02:34:17.940Z,2.40
2022-09-21T02:39:45.595Z,2.95
2022-09-21T02:44:52.024Z,2.80
2022-09-21T02:49:55.045Z,2.65
2022-09-21T02:54:56.924Z,2.10
2022-09-21T02:59:58.236Z,2.67
2022-09-21T03:04:59.575Z,2.72
2022-09-21T03:10:00.895Z,2.63
2022-09-21T03:15:02.240Z,2.58
2022-09-21T03:20:03.653Z,2.85
2022-09-21T03:25:05.355Z,2.20
2022-09-21T03:30:06.844Z,2.53
2022-09-21T03:35:08.385Z,2.50
2022-09-21T03:40:10.078Z,2.30
2022-09-21T03:45:12.060Z,2.45
2022-09-21T03:50:13.420Z,2.15
2022-09-21T03:55:14.759Z,2.63
2022-09-21T04:00:16.183Z,2.33
2022-09-21T04:05:17.584Z,3.30
2022-09-21T04:10:20.122Z,2.10
2022-09-21T04:15:21.612Z,2.20
2022-09-21T04:20:23.351Z,2.08
2022-09-21T04:25:24.681Z,2.08
2022-09-21T04:30:26.141Z,1.98
2022-09-21T04:35:27.615Z,2.40
2022-09-21T04:40:29.227Z,2.25
2022-09-21T04:45:31.140Z,2.08
2022-09-21T04:50:32.542Z,1.90
2022-09-21T04:55:33.894Z,1.90
2022-09-21T05:00:35.247Z,1.85
2022-09-21T05:05:36.564Z,2.00
2022-09-21T05:10:38.034Z,1.95
2022-09-21T05:15:39.578Z,2.00
2022-09-21T05:20:40.939Z,2.55
2022-09-21T05:25:43.682Z,2.53
2022-09-21T05:31:07.186Z,2.05
2022-09-21T05:36:16.290Z,2.40
2022-09-21T05:41:17.822Z,2.30
2022-09-21T05:46:37.931Z,2.65
2022-09-21T05:51:44.641Z,2.33
2022-09-21T05:56:46.241Z,2.25
2022-09-21T06:01:51.054Z,2.38
2022-09-21T06:06:52.696Z,2.20
2022-09-21T06:11:54.077Z,2.67
2022-09-21T06:16:55.519Z,2.10
2022-09-21T06:21:56.918Z,2.42
2022-09-21T06:26:58.589Z,3.15
2022-09-21T06:32:01.487Z,2.40
2022-09-21T06:37:03.225Z,2.35
2022-09-21T06:42:04.604Z,2.33
2022-09-21T06:47:06.016Z,2.00
2022-09-21T06:52:07.612Z,1.90
2022-09-21T06:57:09.121Z,2.20
2022-09-21T07:02:11.570Z,1.77
2022-09-21T07:07:13.122Z,1.98
2022-09-21T07:12:16.126Z,1.90
2022-09-21T07:17:17.575Z,1.80
2022-09-21T07:22:18.961Z,2.05
2022-09-21T07:27:20.521Z,1.80
2022-09-21T07:32:22.037Z,1.92
2022-09-21T07:37:24.701Z,1.65
2022-09-21T07:42:27.880Z,1.90
2022-09-21T07:47:29.254Z,1.80
2022-09-21T07:52:30.843Z,2.03
2022-09-21T07:57:50.870Z,1.50
2022-09-21T08:02:52.206Z,1.45
2022-09-21T08:07:57.332Z,2.22
2022-09-21T08:12:58.779Z,1.85
2022-09-21T08:18:00.932Z,1.70
2022-09-21T08:23:02.390Z,2.08
2022-09-21T08:28:08.865Z,2.00
2022-09-21T08:33:11.133Z,1.65
2022-09-21T08:38:12.516Z,1.48
2022-09-21T08:43:17.345Z,1.60
2022-09-21T08:48:29.065Z,1.50
2022-09-21T08:53:33.739Z,1.40
2022-09-21T08:58:37.071Z,1.80
2022-09-21T09:03:50.889Z,1.50
2022-09-21T09:09:10.765Z,1.05
2022-09-21T09:14:29.099Z,1.35
2022-09-21T09:19:30.433Z,1.20
2022-09-21T09:24:37.093Z,1.35
2022-09-21T09:29:38.435Z,1.10
2022-09-21T09:34:42.284Z,1.33
2022-09-21T09:39:45.776Z,1.15
2022-09-21T09:45:03.041Z,1.42
2022-09-21T09:50:06.836Z,1.25
2022-09-21T09:55:15.523Z,1.20
2022-09-21T10:00:20.738Z,1.10
2022-09-21T10:05:23.840Z,1.10
2022-09-21T10:10:40.448Z,1.85
2022-09-21T10:15:43.756Z,1.30
2022-09-21T10:21:02.906Z,1.20
2022-09-21T10:26:13.759Z,1.30
2022-09-21T10:31:23.650Z,1.40
2022-09-21T10:36:31.462Z,1.42
2022-09-21T10:41:32.822Z,1.25
2022-09-21T10:46:35.443Z,1.40
2022-09-21T10:51:37.135Z,1.75
2022-09-21T10:56:49.748Z,1.38
2022-09-21T11:01:52.336Z,1.60
2022-09-21T11:07:13.763Z,1.40
2022-09-21T11:12:34.034Z,1.20
2022-09-21T11:17:38.890Z,1.02
2022-09-21T11:23:00.883Z,1.33
2022-09-21T11:28:22.921Z,1.23
2022-09-21T11:33:37.155Z,1.15
2022-09-21T11:38:53.910Z,1.25
2022-09-21T11:43:55.519Z,1.00
2022-09-21T11:49:15.676Z,1.10
2022-09-21T11:54:17.021Z,1.00
2022-09-21T11:59:18.597Z,1.10
2022-09-21T12:04:32.365Z,2.10
2022-09-21T12:09:43.928Z,1.00
2022-09-21T12:20:28.342Z,1.30
2022-09-21T12:25:39.497Z,1.40
2022-09-21T12:30:43.957Z,1.08
2022-09-21T12:35:48.168Z,1.20
2022-09-21T12:40:51.653Z,1.00
2022-09-21T12:46:04.658Z,0.90
2022-09-21T12:51:24.962Z,1.10
2022-09-21T12:56:29.331Z,1.30
2022-09-21T13:01:37.679Z,1.05
2022-09-21T13:06:53.215Z,1.27
2022-09-21T13:11:56.805Z,1.00
2022-09-21T13:17:00.959Z,1.10
2022-09-21T13:22:21.199Z,1.27
2022-09-21T13:27:22.624Z,1.10
2022-09-21T13:32:24.286Z,1.25
2022-09-21T13:37:27.620Z,1.10
2022-09-21T13:42:32.138Z,1.20
2022-09-21T13:47:39.136Z,1.08
2022-09-21T13:52:45.387Z,1.13
2022-09-21T13:57:48.486Z,1.10
2022-09-21T14:02:54.756Z,1.10
2022-09-21T14:08:16.556Z,1.13
2022-09-21T14:13:27.122Z,1.05
2022-09-21T14:18:35.999Z,1.02
2022-09-21T14:23:38.399Z,0.90
2022-09-21T14:28:43.743Z,1.10
2022-09-21T14:33:47.730Z,1.13
2022-09-21T14:38:54.142Z,1.15
2022-09-21T14:43:57.353Z,1.10
2022-09-21T14:49:04.427Z,1.10
2022-09-21T14:54:26.232Z,1.15
2022-09-21T14:59:44.630Z,1.20
2022-09-21T15:04:54.415Z,1.00
2022-09-21T15:10:21.180Z,0.98
2022-09-21T15:15:34.601Z,1.17
2022-09-21T15:20:35.974Z,1.10
2022-09-21T15:25:37.938Z,1.05
2022-09-21T15:30:44.424Z,1.23
2022-09-21T15:35:46.647Z,1.48
2022-09-21T15:40:50.001Z,1.20
2022-09-21T15:45:56.333Z,1.17
2022-09-21T15:51:00.294Z,1.52
2022-09-21T15:56:01.883Z,0.90
2022-09-21T16:01:11.100Z,1.15
2022-09-21T16:11:26.537Z,1.20
2022-09-21T16:16:28.101Z,1.05
2022-09-21T16:21:33.684Z,1.10
2022-09-21T16:26:36.530Z,1.52
2022-09-21T16:31:39.024Z,1.20
2022-09-21T16:36:41.902Z,1.23
2022-09-21T16:41:47.319Z,1.25
2022-09-21T16:46:51.538Z,1.00
2022-09-21T16:51:55.445Z,1.20
2022-09-21T16:56:58.326Z,1.30
2022-09-21T17:02:00.547Z,1.30
2022-09-21T17:07:05.426Z,1.40
2022-09-21T17:12:07.910Z,1.25
2022-09-21T17:17:17.575Z,1.40
2022-09-21T17:22:19.503Z,1.40
2022-09-21T17:27:22.632Z,1.90
2022-09-21T17:32:24.707Z,1.70
2022-09-21T17:37:26.844Z,1.67
2022-09-21T17:42:28.438Z,1.30
2022-09-21T17:47:31.162Z,1.80
2022-09-21T17:52:51.258Z,1.88
2022-09-21T17:58:27.999Z,1.77
2022-09-21T18:03:30.975Z,1.83
2022-09-21T18:08:33.920Z,1.98
2022-09-21T18:13:40.015Z,2.03
2022-09-21T18:19:03.655Z,1.80
2022-09-21T18:24:08.061Z,3.35
2022-09-21T18:29:39.778Z,3.00
2022-09-21T18:35:00.625Z,3.20
2022-09-21T18:45:07.252Z,2.95
2022-09-21T18:50:18.483Z,2.80
2022-09-21T18:55:27.535Z,3.42
2022-09-21T19:00:34.722Z,4.00
2022-09-21T19:05:37.082Z,4.80
2022-09-21T19:10:40.759Z,4.65
2022-09-21T19:16:00.988Z,4.07
2022-09-21T19:21:21.422Z,3.97
2022-09-21T19:26:29.081Z,4.60
2022-09-21T19:31:30.617Z,4.70
2022-09-21T19:36:32.040Z,4.95
2022-09-21T19:41:33.458Z,4.38
2022-09-21T19:46:47.089Z,4.93
2022-09-21T19:51:49.727Z,4.97
2022-09-21T19:57:09.641Z,4.82
2022-09-21T20:02:15.373Z,5.43
2022-09-21T20:07:21.232Z,4.38
2022-09-21T20:12:25.251Z,4.45
2022-09-21T20:17:38.881Z,4.50
2022-09-21T20:22:40.696Z,4.32
2022-09-21T20:27:42.015Z,4.30
2022-09-21T20:32:44.933Z,4.28
2022-09-21T20:37:46.321Z,4.60
2022-09-21T20:42:47.640Z,4.10
2022-09-21T20:47:49.709Z,4.13
2022-09-21T20:52:52.197Z,3.47
2022-09-21T20:57:53.573Z,3.90
2022-09-21T21:02:56.311Z,4.28
2022-09-21T21:07:57.656Z,4.05
2022-09-21T21:12:59.025Z,4.43
2022-09-21T21:18:00.395Z,4.80
2022-09-21T21:23:07.181Z,4.55
2022-09-21T21:28:09.442Z,4.18
2022-09-21T21:33:11.206Z,4.40
2022-09-21T21:38:13.513Z,4.00
2022-09-21T21:43:14.878Z,4.30
2022-09-21T21:48:16.255Z,3.88
2022-09-21T21:53:17.605Z,4.00
2022-09-21T21:58:20.343Z,4.13
2022-09-21T22:03:21.707Z,4.07
2022-09-21T22:08:23.086Z,3.72
2022-09-21T22:13:25.540Z,3.75
2022-09-21T22:18:27.145Z,3.67
2022-09-21T22:23:28.665Z,3.50
2022-09-21T22:28:30.213Z,4.18
2022-09-21T22:33:33.236Z,3.28
2022-09-21T22:38:39.214Z,3.72
2022-09-21T22:43:43.889Z,3.90
2022-09-21T22:48:45.796Z,3.50
2022-09-21T22:53:48.395Z,3.85
2022-09-21T22:58:51.654Z,4.07
2022-09-21T23:03:57.400Z,4.25
2022-09-21T23:08:59.600Z,3.83
2022-09-21T23:14:01.042Z,3.90
2022-09-21T23:19:02.344Z,3.45
2022-09-21T23:24:05.380Z,3.10
2022-09-21T23:29:10.022Z,3.05
2022-09-21T23:34:12.742Z,3.38
2022-09-21T23:39:15.058Z,4.00
2022-09-21T23:44:16.436Z,3.97
2022-09-21T23:49:19.057Z,3.70
2022-09-21T23:54:20.406Z,3.45
2022-09-21T23:59:24.082Z,4.10
